createdAt,value
2023-04-09T00:00:15.779Z,9.46
2023-04-09T00:02:42.614Z,9.53
2023-04-09T00:05:09.212Z,9.57
2023-04-09T00:07:35.646Z,9.56
2023-04-09T00:10:02.241Z,9.58
2023-04-09T00:12:30.249Z,9.59
2023-04-09T00:14:57.375Z,9.60
2023-04-09T00:17:23.778Z,9.61
2023-04-09T00:19:50.213Z,9.64
2023-04-09T00:22:16.843Z,9.61
2023-04-09T00:24:43.234Z,9.63
2023-04-09T00:27:09.597Z,9.64
2023-04-09T00:29:35.940Z,9.61
2023-04-09T00:32:02.482Z,9.59
2023-04-09T00:34:29.022Z,9.60
2023-04-09T00:36:55.679Z,9.58
2023-04-09T00:39:22.076Z,9.56
2023-04-09T00:41:48.522Z,9.53
2023-04-09T00:44:15.108Z,9.53
2023-04-09T00:46:41.668Z,9.52
2023-04-09T00:49:08.035Z,9.50
2023-04-09T00:51:35.793Z,9.51
2023-04-09T00:54:02.242Z,9.46
2023-04-09T00:56:29.840Z,9.41
2023-04-09T00:58:56.284Z,9.42
2023-04-09T01:01:22.760Z,9.41
2023-04-09T01:03:49.354Z,9.38
2023-04-09T01:06:27.830Z,9.38
2023-04-09T01:09:08.799Z,9.39
2023-04-09T01:11:44.918Z,9.38
2023-04-09T01:14:37.779Z,9.38
2023-04-09T01:17:15.398Z,9.37
2023-04-09T01:19:51.139Z,9.38
2023-04-09T01:22:31.611Z,9.36
2023-04-09T01:25:24.126Z,9.36
2023-04-09T01:28:18.173Z,9.35
2023-04-09T01:30:49.088Z,9.33
2023-04-09T01:33:17.558Z,9.30
2023-04-09T01:35:46.323Z,9.30
2023-04-09T01:38:14.241Z,9.31
2023-04-09T01:40:40.823Z,9.29
2023-04-09T01:43:08.697Z,9.31
2023-04-09T01:45:34.995Z,9.30
2023-04-09T01:48:03.313Z,9.30
2023-04-09T01:50:29.813Z,9.30
2023-04-09T01:52:56.745Z,9.24
2023-04-09T01:55:23.164Z,9.23
2023-04-09T01:57:49.592Z,9.21
2023-04-09T02:00:16.502Z,9.21
2023-04-09T02:02:53.331Z,9.25
2023-04-09T02:05:23.114Z,9.23
2023-04-09T02:07:55.840Z,9.26
2023-04-09T02:10:27.038Z,9.25
2023-04-09T02:12:54.904Z,9.21
2023-04-09T02:15:22.223Z,9.16
2023-04-09T02:17:48.717Z,9.11
2023-04-09T02:20:19.173Z,9.03
2023-04-09T02:22:46.580Z,8.96
2023-04-09T02:25:13.037Z,8.89
2023-04-09T02:27:39.584Z,8.83
2023-04-09T02:30:06.620Z,8.74
2023-04-09T02:32:33.096Z,8.68
2023-04-09T02:34:59.590Z,8.64
2023-04-09T02:37:26.111Z,8.64
2023-04-09T02:39:52.653Z,8.57
2023-04-09T02:42:19.100Z,8.51
2023-04-09T02:44:45.477Z,8.47
2023-04-09T02:47:11.913Z,8.46
2023-04-09T02:49:38.394Z,8.49
2023-04-09T02:52:04.931Z,8.51
2023-04-09T02:54:31.390Z,8.47
2023-04-09T02:56:57.894Z,8.47
2023-04-09T02:59:24.333Z,8.48
2023-04-09T03:01:50.843Z,8.48
2023-04-09T03:04:17.309Z,8.52
2023-04-09T03:06:43.996Z,8.57
2023-04-09T03:09:10.437Z,8.61
2023-04-09T03:11:36.809Z,8.66
2023-04-09T03:14:03.228Z,8.64
2023-04-09T03:16:29.826Z,8.66
2023-04-09T03:18:56.196Z,8.62
2023-04-09T03:21:22.646Z,8.67
2023-04-09T03:23:49.049Z,8.71
2023-04-09T03:26:15.440Z,8.73
2023-04-09T03:28:41.811Z,8.68
2023-04-09T03:31:08.240Z,8.71
2023-04-09T03:33:34.692Z,8.63
2023-04-09T03:36:01.186Z,8.67
2023-04-09T03:38:27.623Z,8.63
2023-04-09T03:40:53.990Z,8.58
2023-04-09T03:43:20.426Z,8.56
2023-04-09T03:45:46.834Z,8.60
2023-04-09T03:48:13.223Z,8.63
2023-04-09T03:50:40.827Z,8.64
2023-04-09T03:53:07.509Z,8.64
2023-04-09T03:55:34.212Z,8.68
2023-04-09T03:58:00.898Z,8.67
2023-04-09T04:00:27.393Z,8.65
2023-04-09T04:02:53.887Z,8.64
2023-04-09T04:05:24.179Z,8.64
2023-04-09T04:07:50.538Z,8.62
2023-04-09T04:10:16.984Z,8.69
2023-04-09T04:12:43.351Z,8.75
2023-04-09T04:15:10.119Z,8.71
2023-04-09T04:17:36.506Z,8.71
2023-04-09T04:20:03.097Z,8.69
2023-04-09T04:22:29.552Z,8.71
2023-04-09T04:24:56.098Z,8.76
2023-04-09T04:27:22.477Z,8.81
2023-04-09T04:29:48.863Z,8.86
2023-04-09T04:32:15.433Z,8.86
2023-04-09T04:34:41.852Z,8.88
2023-04-09T04:37:08.628Z,8.85
2023-04-09T04:39:35.012Z,8.84
2023-04-09T04:42:01.466Z,8.82
2023-04-09T04:44:27.998Z,8.79
2023-04-09T04:46:54.444Z,8.89
2023-04-09T04:49:20.827Z,8.86
2023-04-09T04:51:47.294Z,8.75
2023-04-09T04:54:13.783Z,8.67
2023-04-09T04:56:40.303Z,8.63
2023-04-09T04:59:06.843Z,8.63
2023-04-09T05:01:33.413Z,8.60
2023-04-09T05:04:00.242Z,8.60
2023-04-09T05:06:28.001Z,8.58
2023-04-09T05:08:57.951Z,8.57
2023-04-09T05:11:25.388Z,8.60
2023-04-09T05:13:51.887Z,8.56
2023-04-09T05:16:19.630Z,8.58
2023-04-09T05:18:46.593Z,8.57
2023-04-09T05:21:13.224Z,8.62
2023-04-09T05:23:39.633Z,8.66
2023-04-09T05:26:06.022Z,8.67
2023-04-09T05:28:32.907Z,8.77
2023-04-09T05:30:59.683Z,8.92
2023-04-09T05:33:26.271Z,9.00
2023-04-09T05:35:52.750Z,9.05
2023-04-09T05:38:19.176Z,9.06
2023-04-09T05:40:45.806Z,9.13
2023-04-09T05:43:12.252Z,9.23
2023-04-09T05:45:38.901Z,9.27
2023-04-09T05:48:05.895Z,9.31
2023-04-09T05:50:38.181Z,9.34
2023-04-09T05:53:14.147Z,9.41
2023-04-09T05:55:40.580Z,9.43
2023-04-09T05:58:06.977Z,9.48
2023-04-09T06:00:33.617Z,9.65
2023-04-09T06:03:00.151Z,9.77
2023-04-09T06:05:26.698Z,9.91
2023-04-09T06:07:53.047Z,10.05
2023-04-09T06:10:19.510Z,10.16
2023-04-09T06:12:45.957Z,10.55
2023-04-09T06:15:12.280Z,10.92
2023-04-09T06:17:38.802Z,11.24
2023-04-09T06:20:06.214Z,11.50
2023-04-09T06:22:32.682Z,11.69
2023-04-09T06:24:59.829Z,11.86
2023-04-09T06:27:26.579Z,11.80
2023-04-09T06:29:53.022Z,11.88
2023-04-09T06:32:19.402Z,11.91
2023-04-09T06:34:45.867Z,12.19
2023-04-09T06:37:12.532Z,12.29
2023-04-09T06:39:44.815Z,12.03
2023-04-09T06:42:20.636Z,12.07
2023-04-09T06:44:47.523Z,12.35
2023-04-09T06:47:13.876Z,12.37
2023-04-09T06:49:40.396Z,12.36
2023-04-09T06:52:07.352Z,12.30
2023-04-09T06:54:33.766Z,12.68
2023-04-09T06:57:00.206Z,13.06
2023-04-09T06:59:26.709Z,13.14
2023-04-09T07:01:54.661Z,12.36
2023-04-09T07:04:21.562Z,12.05
2023-04-09T07:06:48.042Z,12.25
2023-04-09T07:09:15.348Z,12.86
2023-04-09T07:11:41.836Z,13.72
2023-04-09T07:14:08.231Z,14.64
2023-04-09T07:16:34.718Z,15.37
2023-04-09T07:19:01.429Z,15.15
2023-04-09T07:21:28.263Z,15.75
2023-04-09T07:23:54.996Z,16.45
2023-04-09T07:26:21.689Z,16.98
2023-04-09T07:28:48.097Z,17.44
2023-04-09T07:31:14.467Z,17.55
2023-04-09T07:33:40.900Z,18.33
2023-04-09T07:36:07.298Z,18.50
2023-04-09T07:38:34.784Z,19.06
2023-04-09T07:41:01.396Z,19.45
2023-04-09T07:43:27.921Z,18.64
2023-04-09T07:45:54.536Z,19.20
2023-04-09T07:48:21.185Z,19.69
2023-04-09T07:50:48.261Z,19.76
2023-04-09T07:53:14.699Z,19.97
2023-04-09T07:55:41.328Z,19.91
2023-04-09T07:58:07.687Z,20.36
2023-04-09T08:00:34.130Z,20.36
2023-04-09T08:03:01.810Z,20.00
2023-04-09T08:05:28.882Z,19.68
2023-04-09T08:07:55.414Z,18.89
2023-04-09T08:10:22.070Z,19.31
2023-04-09T08:12:49.192Z,18.69
2023-04-09T08:15:16.009Z,17.05
2023-04-09T08:17:42.453Z,16.57
2023-04-09T08:20:09.346Z,15.27
2023-04-09T08:22:35.797Z,14.79
2023-04-09T08:25:02.891Z,14.03
2023-04-09T08:27:29.594Z,13.59
2023-04-09T08:29:56.065Z,13.71
2023-04-09T08:32:22.644Z,13.74
2023-04-09T08:34:49.214Z,13.65
2023-04-09T08:37:16.693Z,13.37
2023-04-09T08:39:43.096Z,12.57
2023-04-09T08:42:12.476Z,12.41
2023-04-09T08:44:38.955Z,12.59
2023-04-09T08:47:10.132Z,12.88
2023-04-09T08:49:36.651Z,12.46
2023-04-09T08:52:03.442Z,12.32
2023-04-09T08:54:30.059Z,12.27
2023-04-09T08:56:57.547Z,12.37
2023-04-09T08:59:23.980Z,12.27
2023-04-09T09:02:06.832Z,12.53
2023-04-09T09:04:47.792Z,12.42
2023-04-09T09:07:15.555Z,12.15
2023-04-09T09:09:59.216Z,12.45
2023-04-09T09:12:41.093Z,13.39
2023-04-09T09:15:27.770Z,12.79
2023-04-09T09:17:59.205Z,13.51
2023-04-09T09:20:27.168Z,13.79
2023-04-09T09:22:56.517Z,14.14
2023-04-09T09:25:24.792Z,14.31
2023-04-09T09:27:52.270Z,14.37
2023-04-09T09:30:27.167Z,14.43
2023-04-09T09:32:55.352Z,14.27
2023-04-09T09:35:22.288Z,13.88
2023-04-09T09:38:01.211Z,13.91
2023-04-09T09:40:28.757Z,13.99
2023-04-09T09:42:56.993Z,14.05
2023-04-09T09:45:24.437Z,14.18
2023-04-09T09:47:52.891Z,14.20
2023-04-09T09:50:24.026Z,14.35
2023-04-09T09:52:53.207Z,14.39
2023-04-09T09:55:23.128Z,14.52
2023-04-09T09:57:51.591Z,14.25
2023-04-09T10:00:19.399Z,13.07
2023-04-09T10:02:56.639Z,13.50
2023-04-09T10:05:26.785Z,13.96
2023-04-09T10:07:57.865Z,14.34
2023-04-09T10:10:25.939Z,14.25
2023-04-09T10:12:52.711Z,13.66
2023-04-09T10:15:19.781Z,13.08
2023-04-09T10:17:46.620Z,13.59
2023-04-09T10:20:22.803Z,13.95
2023-04-09T10:22:51.748Z,12.94
2023-04-09T10:25:18.416Z,11.82
2023-04-09T10:27:46.181Z,11.52
2023-04-09T10:30:35.671Z,12.27
2023-04-09T10:33:10.204Z,12.59
2023-04-09T10:35:37.172Z,13.27
2023-04-09T10:38:03.629Z,13.87
2023-04-09T10:40:30.258Z,14.22
2023-04-09T10:42:58.184Z,13.40
2023-04-09T10:45:26.217Z,13.28
2023-04-09T10:47:53.549Z,14.30
2023-04-09T10:50:32.612Z,14.84
2023-04-09T10:53:00.607Z,15.63
2023-04-09T10:55:38.097Z,15.86
2023-04-09T10:58:11.935Z,16.02
2023-04-09T11:00:44.153Z,16.36
2023-04-09T11:03:30.479Z,16.27
2023-04-09T11:06:01.746Z,16.19
2023-04-09T11:08:30.332Z,16.39
2023-04-09T11:10:58.477Z,15.82
2023-04-09T11:13:25.053Z,15.84
2023-04-09T11:15:51.565Z,15.26
2023-04-09T11:18:24.924Z,15.37
2023-04-09T11:20:59.446Z,15.53
2023-04-09T11:23:26.926Z,15.39
2023-04-09T11:25:54.102Z,15.06
2023-04-09T11:28:20.998Z,15.45
2023-04-09T11:30:49.993Z,15.55
2023-04-09T11:33:19.150Z,16.00
2023-04-09T11:35:46.546Z,15.94
2023-04-09T11:38:13.116Z,16.63
2023-04-09T11:40:48.091Z,17.11
2023-04-09T11:43:20.992Z,16.92
2023-04-09T11:45:48.540Z,16.17
2023-04-09T11:48:18.134Z,16.99
2023-04-09T11:50:44.770Z,16.99
2023-04-09T11:53:21.998Z,16.83
2023-04-09T11:55:51.505Z,17.19
2023-04-09T11:58:18.308Z,17.51
2023-04-09T12:00:45.486Z,17.66
2023-04-09T12:03:12.277Z,17.55
2023-04-09T12:05:40.669Z,17.40
2023-04-09T12:08:08.821Z,16.35
2023-04-09T12:10:37.511Z,16.79
2023-04-09T12:13:06.966Z,17.14
2023-04-09T12:15:34.971Z,16.42
2023-04-09T12:18:01.860Z,16.49
2023-04-09T12:20:39.625Z,16.11
2023-04-09T12:23:07.296Z,16.45
2023-04-09T12:25:39.169Z,16.78
2023-04-09T12:28:07.286Z,14.33
2023-04-09T12:30:34.329Z,15.01
2023-04-09T12:33:01.447Z,16.16
2023-04-09T12:35:28.308Z,17.03
2023-04-09T12:37:54.829Z,17.14
2023-04-09T12:40:21.536Z,17.75
2023-04-09T12:42:48.332Z,18.37
2023-04-09T12:45:16.566Z,18.60
2023-04-09T12:47:43.769Z,18.69
2023-04-09T12:50:11.707Z,19.13
2023-04-09T12:52:38.570Z,19.15
2023-04-09T12:55:06.241Z,19.18
2023-04-09T12:57:33.009Z,18.20
2023-04-09T13:00:00.175Z,18.12
2023-04-09T13:02:26.905Z,18.27
2023-04-09T13:04:53.698Z,17.52
2023-04-09T13:07:20.545Z,17.27
2023-04-09T13:09:48.913Z,16.69
2023-04-09T13:12:16.228Z,16.73
2023-04-09T13:14:46.708Z,17.44
2023-04-09T13:17:13.434Z,18.66
2023-04-09T13:19:42.136Z,18.91
2023-04-09T13:22:09.416Z,19.28
2023-04-09T13:24:36.491Z,18.82
2023-04-09T13:27:07.000Z,18.00
2023-04-09T13:29:33.430Z,17.22
2023-04-09T13:32:02.719Z,17.13
2023-04-09T13:34:29.260Z,16.77
2023-04-09T13:36:55.760Z,16.18
2023-04-09T13:39:22.177Z,15.06
2023-04-09T13:41:48.719Z,15.20
2023-04-09T13:44:15.577Z,15.53
2023-04-09T13:46:42.139Z,16.33
2023-04-09T13:49:08.764Z,16.69
2023-04-09T13:51:35.202Z,17.18
2023-04-09T13:54:02.790Z,17.20
2023-04-09T13:56:31.318Z,15.84
2023-04-09T13:58:57.922Z,15.76
2023-04-09T14:01:26.193Z,15.99
2023-04-09T14:03:52.948Z,16.61
2023-04-09T14:06:19.769Z,17.46
2023-04-09T14:08:46.165Z,17.79
2023-04-09T14:11:14.964Z,17.96
2023-04-09T14:13:41.735Z,18.06
2023-04-09T14:16:09.130Z,18.40
2023-04-09T14:18:35.642Z,16.78
2023-04-09T14:21:02.171Z,16.53
2023-04-09T14:23:28.561Z,15.28
2023-04-09T14:25:54.987Z,16.05
2023-04-09T14:28:21.470Z,16.79
2023-04-09T14:30:48.456Z,17.24
2023-04-09T14:33:14.956Z,17.94
2023-04-09T14:35:41.371Z,18.50
2023-04-09T14:38:09.899Z,18.06
2023-04-09T14:40:36.600Z,18.01
2023-04-09T14:43:03.193Z,18.49
2023-04-09T14:45:30.869Z,16.93
2023-04-09T14:47:57.546Z,17.05
2023-04-09T14:50:24.109Z,15.75
2023-04-09T14:52:50.718Z,16.45
2023-04-09T14:55:17.169Z,17.15
2023-04-09T14:57:43.681Z,16.35
2023-04-09T15:00:11.965Z,16.50
2023-04-09T15:02:38.691Z,15.31
2023-04-09T15:05:05.753Z,15.29
2023-04-09T15:07:32.210Z,14.73
2023-04-09T15:10:01.827Z,15.42
2023-04-09T15:12:30.351Z,14.61
2023-04-09T15:14:57.374Z,14.98
2023-04-09T15:17:24.497Z,15.21
2023-04-09T15:19:52.957Z,14.80
2023-04-09T15:22:19.925Z,14.72
2023-04-09T15:24:46.370Z,15.49
2023-04-09T15:27:12.813Z,15.63
2023-04-09T15:29:39.261Z,14.70
2023-04-09T15:32:05.979Z,15.79
2023-04-09T15:34:32.776Z,15.88
2023-04-09T15:36:59.291Z,16.22
2023-04-09T15:39:28.302Z,16.44
2023-04-09T15:41:58.609Z,15.87
2023-04-09T15:44:25.994Z,15.50
2023-04-09T15:46:52.536Z,15.82
2023-04-09T15:49:19.667Z,14.23
2023-04-09T15:51:46.487Z,14.59
2023-04-09T15:54:13.050Z,14.81
2023-04-09T15:56:40.410Z,14.62
2023-04-09T15:59:08.317Z,14.77
2023-04-09T16:01:36.282Z,14.41
2023-04-09T16:04:03.930Z,14.58
2023-04-09T16:06:30.489Z,14.76
2023-04-09T16:08:57.135Z,14.44
2023-04-09T16:11:23.755Z,14.94
2023-04-09T16:13:50.540Z,13.95
2023-04-09T16:16:17.078Z,13.50
2023-04-09T16:18:43.708Z,13.85
2023-04-09T16:21:10.504Z,13.67
2023-04-09T16:23:37.089Z,13.47
2023-04-09T16:26:03.828Z,13.78
2023-04-09T16:28:30.451Z,14.18
2023-04-09T16:30:57.063Z,14.39
2023-04-09T16:33:23.807Z,14.66
2023-04-09T16:35:50.378Z,14.89
2023-04-09T16:38:16.830Z,14.28
2023-04-09T16:40:43.920Z,14.69
2023-04-09T16:43:10.354Z,15.10
2023-04-09T16:45:37.049Z,15.21
2023-04-09T16:48:06.171Z,14.67
2023-04-09T16:50:32.909Z,14.71
2023-04-09T16:53:01.010Z,14.85
2023-04-09T16:55:27.500Z,15.16
2023-04-09T16:57:55.935Z,15.48
2023-04-09T17:00:22.667Z,15.45
2023-04-09T17:02:49.611Z,15.26
2023-04-09T17:05:17.879Z,14.61
2023-04-09T17:07:44.550Z,14.86
2023-04-09T17:10:11.484Z,13.94
2023-04-09T17:12:38.180Z,13.99
2023-04-09T17:15:04.989Z,13.61
2023-04-09T17:17:31.451Z,13.67
2023-04-09T17:19:59.898Z,13.69
2023-04-09T17:22:26.307Z,13.57
2023-04-09T17:24:52.846Z,13.06
2023-04-09T17:27:19.690Z,13.43
2023-04-09T17:29:46.146Z,13.10
2023-04-09T17:32:12.542Z,12.96
2023-04-09T17:34:38.998Z,13.15
2023-04-09T17:37:05.387Z,13.20
2023-04-09T17:39:31.846Z,12.96
2023-04-09T17:42:00.549Z,13.39
2023-04-09T17:44:27.046Z,13.27
2023-04-09T17:46:53.885Z,13.28
2023-04-09T17:49:22.335Z,13.44
2023-04-09T17:51:48.948Z,13.51
2023-04-09T17:54:15.455Z,13.15
2023-04-09T17:56:41.902Z,13.42
2023-04-09T17:59:08.362Z,13.19
2023-04-09T18:01:34.986Z,12.97
2023-04-09T18:04:02.068Z,12.98
2023-04-09T18:06:29.229Z,13.16
2023-04-09T18:08:55.844Z,12.99
2023-04-09T18:11:23.543Z,12.87
2023-04-09T18:13:51.113Z,12.73
2023-04-09T18:16:19.410Z,12.74
2023-04-09T18:18:46.124Z,12.84
2023-04-09T18:21:12.534Z,12.61
2023-04-09T18:23:40.351Z,12.59
2023-04-09T18:26:07.763Z,12.82
2023-04-09T18:28:35.084Z,13.06
2023-04-09T18:31:02.021Z,12.69
2023-04-09T18:33:28.548Z,12.91
2023-04-09T18:35:55.156Z,12.88
2023-04-09T18:38:21.755Z,13.07
2023-04-09T18:40:48.213Z,13.11
2023-04-09T18:43:14.644Z,13.04
2023-04-09T18:45:41.335Z,12.93
2023-04-09T18:48:08.905Z,12.80
2023-04-09T18:50:36.100Z,12.60
2023-04-09T18:53:03.651Z,12.22
2023-04-09T18:55:30.749Z,12.11
2023-04-09T18:57:57.457Z,11.97
2023-04-09T19:00:24.088Z,11.91
2023-04-09T19:02:50.800Z,12.04
2023-04-09T19:05:17.494Z,12.04
2023-04-09T19:07:43.926Z,12.11
2023-04-09T19:10:10.807Z,11.81
2023-04-09T19:12:37.766Z,11.69
2023-04-09T19:15:04.955Z,11.29
2023-04-09T19:17:32.191Z,11.62
2023-04-09T19:19:58.681Z,11.54
2023-04-09T19:22:25.173Z,11.56
2023-04-09T19:24:51.710Z,11.57
2023-04-09T19:27:18.647Z,11.67
2023-04-09T19:29:46.584Z,11.56
2023-04-09T19:32:13.320Z,11.58
2023-04-09T19:34:39.814Z,11.64
2023-04-09T19:37:06.625Z,11.65
2023-04-09T19:39:33.141Z,11.71
2023-04-09T19:41:59.540Z,11.76
2023-04-09T19:44:26.095Z,11.44
2023-04-09T19:46:52.808Z,11.62
2023-04-09T19:49:19.470Z,11.56
2023-04-09T19:51:45.799Z,11.60
2023-04-09T19:54:12.267Z,11.56
2023-04-09T19:56:38.891Z,11.49
2023-04-09T19:59:05.413Z,11.60
2023-04-09T20:01:32.425Z,11.43
2023-04-09T20:03:59.350Z,11.53
2023-04-09T20:06:27.091Z,11.31
2023-04-09T20:08:54.262Z,10.99
2023-04-09T20:11:21.222Z,11.08
2023-04-09T20:13:48.004Z,11.26
2023-04-09T20:16:15.366Z,11.31
2023-04-09T20:18:41.770Z,11.32
2023-04-09T20:21:08.765Z,11.48
2023-04-09T20:23:35.410Z,11.33
2023-04-09T20:26:02.652Z,11.47
2023-04-09T20:28:29.692Z,11.28
2023-04-09T20:30:56.594Z,11.22
2023-04-09T20:33:23.142Z,11.20
2023-04-09T20:35:50.356Z,11.06
2023-04-09T20:38:20.461Z,11.12
2023-04-09T20:40:47.187Z,11.05
2023-04-09T20:43:13.788Z,10.97
2023-04-09T20:45:40.257Z,10.99
2023-04-09T20:48:06.780Z,10.64
2023-04-09T20:50:33.293Z,10.54
2023-04-09T20:52:59.687Z,10.60
2023-04-09T20:55:26.337Z,10.62
2023-04-09T20:57:56.420Z,10.43
2023-04-09T21:00:23.078Z,10.42
2023-04-09T21:02:49.842Z,10.30
2023-04-09T21:05:23.981Z,10.44
2023-04-09T21:07:52.339Z,10.59
2023-04-09T21:10:18.795Z,10.37
2023-04-09T21:12:45.233Z,10.37
2023-04-09T21:15:11.604Z,10.14
2023-04-09T21:17:38.135Z,10.44
2023-04-09T21:20:04.963Z,10.31
2023-04-09T21:22:31.941Z,10.28
2023-04-09T21:24:58.372Z,10.11
2023-04-09T21:27:24.784Z,10.18
2023-04-09T21:29:51.214Z,10.22
2023-04-09T21:32:17.645Z,10.44
2023-04-09T21:34:44.120Z,10.49
2023-04-09T21:37:10.995Z,10.39
2023-04-09T21:39:38.531Z,10.44
2023-04-09T21:42:06.355Z,10.36
2023-04-09T21:44:33.701Z,10.22
2023-04-09T21:47:01.483Z,9.86
2023-04-09T21:49:27.815Z,10.02
2023-04-09T21:51:55.633Z,9.93
2023-04-09T21:54:21.954Z,9.91
2023-04-09T21:56:48.428Z,9.95
2023-04-09T21:59:14.857Z,10.09
2023-04-09T22:01:41.271Z,10.07
2023-04-09T22:04:07.823Z,10.06
2023-04-09T22:06:34.318Z,9.91
2023-04-09T22:09:01.693Z,9.80
2023-04-09T22:11:28.781Z,9.95
2023-04-09T22:13:58.589Z,9.85
2023-04-09T22:16:26.131Z,9.93
2023-04-09T22:18:53.886Z,9.84
2023-04-09T22:21:20.751Z,9.81
2023-04-09T22:23:47.393Z,9.67
2023-04-09T22:26:13.853Z,9.45
2023-04-09T22:28:40.342Z,9.43
2023-04-09T22:31:07.106Z,9.54
2023-04-09T22:33:33.606Z,9.34
2023-04-09T22:36:00.218Z,9.29
2023-04-09T22:38:26.967Z,9.41
2023-04-09T22:40:53.666Z,9.65
2023-04-09T22:43:20.085Z,9.66
2023-04-09T22:46:04.906Z,9.62
2023-04-09T22:48:33.884Z,9.37
2023-04-09T22:51:00.543Z,9.43
2023-04-09T22:53:26.958Z,9.51
2023-04-09T22:55:54.739Z,9.47
2023-04-09T22:58:21.207Z,9.53
2023-04-09T23:00:47.705Z,9.45
2023-04-09T23:03:14.536Z,9.45
2023-04-09T23:05:41.388Z,9.32
2023-04-09T23:08:07.818Z,9.33
2023-04-09T23:10:34.453Z,9.28
2023-04-09T23:13:01.085Z,9.24
2023-04-09T23:15:28.344Z,9.19
2023-04-09T23:17:54.981Z,9.16
2023-04-09T23:20:21.562Z,9.03
2023-04-09T23:22:48.640Z,9.00
2023-04-09T23:25:16.336Z,8.88
2023-04-09T23:27:42.795Z,8.83
2023-04-09T23:30:10.261Z,8.77
2023-04-09T23:32:36.925Z,8.70
2023-04-09T23:35:04.144Z,8.65
2023-04-09T23:37:31.043Z,8.61
2023-04-09T23:39:57.450Z,8.59
2023-04-09T23:42:24.015Z,8.51
2023-04-09T23:44:50.474Z,8.44
2023-04-09T23:47:17.347Z,8.36
2023-04-09T23:49:43.896Z,8.29
2023-04-09T23:52:10.513Z,8.26
2023-04-09T23:54:36.965Z,8.20
2023-04-09T23:57:03.654Z,8.11
2023-04-09T23:59:33.790Z,8.03
